createdAt,value
2023-05-21T00:00:02.742Z,4.80
2023-05-21T00:02:41.495Z,4.60
2023-05-21T00:05:14.810Z,4.72
2023-05-21T00:07:44.204Z,5.23
2023-05-21T00:10:12.920Z,4.85
2023-05-21T00:12:42.016Z,5.03
2023-05-21T00:15:11.471Z,4.60
2023-05-21T00:17:40.585Z,4.95
2023-05-21T00:20:10.142Z,5.07
2023-05-21T00:22:40.460Z,4.85
2023-05-21T00:25:09.552Z,5.20
2023-05-21T00:27:38.335Z,4.82
2023-05-21T00:30:08.830Z,5.00
2023-05-21T00:32:38.894Z,4.75
2023-05-21T00:35:08.599Z,5.20
2023-05-21T00:37:37.150Z,4.97
2023-05-21T00:40:09.251Z,5.30
2023-05-21T00:42:40.022Z,4.65
2023-05-21T00:45:10.558Z,4.85
2023-05-21T00:47:39.319Z,4.50
2023-05-21T00:50:10.001Z,4.78
2023-05-21T00:52:42.168Z,3.72
2023-05-21T00:55:13.298Z,4.30
2023-05-21T00:57:42.619Z,4.22
2023-05-21T01:00:12.336Z,4.20
2023-05-21T01:02:41.102Z,3.60
2023-05-21T01:05:10.994Z,3.67
2023-05-21T01:07:41.730Z,3.85
2023-05-21T01:10:13.176Z,4.03
2023-05-21T01:12:44.277Z,3.88
2023-05-21T01:15:14.286Z,3.78
2023-05-21T01:17:46.256Z,4.20
2023-05-21T01:20:18.346Z,4.25
2023-05-21T01:22:54.203Z,4.10
2023-05-21T01:25:24.230Z,4.47
2023-05-21T01:27:54.289Z,3.65
2023-05-21T01:30:23.792Z,4.47
2023-05-21T01:32:58.084Z,4.40
2023-05-21T01:35:30.020Z,4.63
2023-05-21T01:38:05.097Z,4.43
2023-05-21T01:40:38.442Z,4.53
2023-05-21T01:43:08.218Z,4.25
2023-05-21T01:45:38.203Z,4.78
2023-05-21T01:48:09.149Z,5.13
2023-05-21T01:50:39.045Z,4.90
2023-05-21T01:53:09.033Z,4.68
2023-05-21T01:55:42.225Z,4.90
2023-05-21T01:58:11.094Z,5.38
2023-05-21T02:00:40.093Z,4.57
2023-05-21T02:03:09.069Z,5.13
2023-05-21T02:05:37.862Z,4.63
2023-05-21T02:08:08.777Z,4.50
2023-05-21T02:10:37.219Z,5.10
2023-05-21T02:13:06.048Z,5.10
2023-05-21T02:15:35.448Z,5.03
2023-05-21T02:18:04.810Z,4.53
2023-05-21T02:20:53.126Z,5.15
2023-05-21T02:23:23.404Z,4.93
2023-05-21T02:25:52.070Z,5.25
2023-05-21T02:28:21.460Z,5.65
2023-05-21T02:30:49.946Z,5.80
2023-05-21T02:33:19.923Z,5.90
2023-05-21T02:35:49.046Z,4.72
2023-05-21T02:38:19.656Z,6.25
2023-05-21T02:40:50.002Z,6.15
2023-05-21T02:43:18.895Z,6.63
2023-05-21T02:45:48.506Z,5.85
2023-05-21T02:48:17.363Z,6.05
2023-05-21T02:50:46.194Z,6.22
2023-05-21T02:53:14.780Z,5.55
2023-05-21T02:55:43.222Z,6.65
2023-05-21T02:58:15.066Z,5.85
2023-05-21T03:00:44.070Z,6.63
2023-05-21T03:03:12.985Z,6.78
2023-05-21T03:05:44.128Z,6.45
2023-05-21T03:08:13.881Z,5.95
2023-05-21T03:10:42.296Z,5.75
2023-05-21T03:13:12.311Z,6.45
2023-05-21T03:15:40.849Z,6.68
2023-05-21T03:20:43.870Z,6.53
2023-05-21T03:23:16.655Z,6.43
2023-05-21T03:25:47.326Z,6.60
2023-05-21T03:28:18.556Z,6.43
2023-05-21T03:30:52.206Z,5.68
2023-05-21T03:33:55.760Z,6.07
2023-05-21T03:36:27.702Z,6.85
2023-05-21T03:38:58.409Z,5.88
2023-05-21T03:41:27.331Z,6.85
2023-05-21T03:44:03.192Z,6.55
2023-05-21T03:46:38.998Z,6.55
2023-05-21T03:49:14.458Z,6.95
2023-05-21T03:51:43.135Z,6.82
2023-05-21T03:54:15.160Z,6.30
2023-05-21T03:56:44.304Z,6.05
2023-05-21T03:59:14.956Z,7.47
2023-05-21T04:01:45.748Z,7.00
2023-05-21T04:04:16.789Z,6.72
2023-05-21T04:06:45.781Z,6.57
2023-05-21T04:09:15.055Z,6.57
2023-05-21T04:11:44.071Z,5.78
2023-05-21T04:14:12.890Z,6.07
2023-05-21T04:16:44.261Z,6.10
2023-05-21T04:19:13.473Z,6.43
2023-05-21T04:21:42.216Z,6.07
2023-05-21T04:24:11.967Z,6.22
2023-05-21T04:27:03.282Z,6.05
2023-05-21T04:29:34.504Z,6.85
2023-05-21T04:32:05.161Z,5.72
2023-05-21T04:34:34.071Z,6.63
2023-05-21T04:37:03.831Z,6.20
2023-05-21T04:39:32.717Z,6.85
2023-05-21T04:42:18.576Z,5.93
2023-05-21T04:44:48.862Z,6.43
2023-05-21T04:47:19.227Z,6.80
2023-05-21T04:49:50.975Z,6.13
2023-05-21T04:52:19.554Z,6.68
2023-05-21T04:54:47.999Z,5.45
2023-05-21T04:57:18.484Z,6.40
2023-05-21T04:59:47.876Z,5.90
2023-05-21T05:02:18.766Z,5.68
2023-05-21T05:04:47.682Z,6.60
2023-05-21T05:07:17.123Z,6.03
2023-05-21T05:09:45.911Z,6.40
2023-05-21T05:12:14.544Z,6.18
2023-05-21T05:14:43.213Z,6.00
2023-05-21T05:17:15.975Z,6.03
2023-05-21T05:19:46.759Z,5.68
2023-05-21T05:22:15.700Z,4.80
2023-05-21T05:24:44.218Z,5.72
2023-05-21T05:27:12.655Z,5.28
2023-05-21T05:29:41.203Z,4.70
2023-05-21T05:32:10.280Z,4.82
2023-05-21T05:34:38.944Z,3.95
2023-05-21T05:37:08.949Z,3.90
2023-05-21T05:39:37.576Z,4.63
2023-05-21T05:42:06.998Z,4.80
2023-05-21T05:44:35.624Z,5.28
2023-05-21T05:47:09.261Z,5.00
2023-05-21T05:49:37.923Z,5.47
2023-05-21T05:52:08.533Z,4.88
2023-05-21T05:54:38.160Z,5.72
2023-05-21T05:57:07.236Z,4.10
2023-05-21T05:59:38.539Z,4.47
2023-05-21T06:02:07.147Z,5.03
2023-05-21T06:04:35.689Z,3.83
2023-05-21T06:07:05.053Z,4.72
2023-05-21T06:09:34.910Z,4.47
2023-05-21T06:12:03.325Z,3.72
2023-05-21T06:14:31.796Z,4.38
2023-05-21T06:17:00.486Z,4.15
2023-05-21T06:19:29.519Z,4.03
2023-05-21T06:21:58.460Z,4.00
2023-05-21T06:24:27.565Z,4.00
2023-05-21T06:26:57.448Z,3.40
2023-05-21T06:29:26.546Z,3.55
2023-05-21T06:31:55.536Z,3.33
2023-05-21T06:34:28.797Z,3.20
2023-05-21T06:36:57.324Z,2.80
2023-05-21T06:39:27.233Z,3.05
2023-05-21T06:41:58.226Z,2.75
2023-05-21T06:44:47.230Z,3.60
2023-05-21T06:47:21.792Z,3.47
2023-05-21T06:49:50.874Z,3.15
2023-05-21T06:52:19.334Z,3.03
2023-05-21T06:54:50.942Z,3.10
2023-05-21T06:57:21.848Z,3.03
2023-05-21T06:59:50.209Z,3.15
2023-05-21T07:02:19.017Z,3.28
2023-05-21T07:04:47.934Z,3.20
2023-05-21T07:07:16.801Z,3.28
2023-05-21T07:09:48.609Z,4.43
2023-05-21T07:12:18.475Z,3.90
2023-05-21T07:14:48.632Z,3.25
2023-05-21T07:17:17.489Z,3.20
2023-05-21T07:19:46.200Z,3.20
2023-05-21T07:22:15.767Z,2.90
2023-05-21T07:24:44.612Z,3.38
2023-05-21T07:27:24.679Z,3.13
2023-05-21T07:29:56.925Z,3.25
2023-05-21T07:32:26.946Z,3.22
2023-05-21T07:34:55.834Z,3.22
2023-05-21T07:37:28.023Z,3.40
2023-05-21T07:39:58.758Z,2.92
2023-05-21T07:42:27.413Z,3.20
2023-05-21T07:44:59.503Z,2.83
2023-05-21T07:47:29.569Z,2.90
2023-05-21T07:49:59.893Z,2.67
2023-05-21T07:52:28.507Z,3.33
2023-05-21T07:54:57.017Z,3.15
2023-05-21T07:57:28.084Z,2.90
2023-05-21T08:00:05.235Z,2.45
2023-05-21T08:02:44.353Z,3.00
2023-05-21T08:05:16.510Z,2.20
2023-05-21T08:07:46.400Z,2.60
2023-05-21T08:10:16.694Z,2.78
2023-05-21T08:12:48.827Z,2.67
2023-05-21T08:15:18.820Z,2.67
2023-05-21T08:17:47.669Z,2.60
2023-05-21T08:20:17.298Z,3.17
2023-05-21T08:22:48.406Z,3.10
2023-05-21T08:25:17.906Z,3.17
2023-05-21T08:27:46.402Z,3.00
2023-05-21T08:30:15.863Z,2.97
2023-05-21T08:32:46.054Z,2.88
2023-05-21T08:35:17.665Z,2.70
2023-05-21T08:37:59.049Z,2.97
2023-05-21T08:40:37.813Z,2.92
2023-05-21T08:43:06.600Z,2.75
2023-05-21T08:45:46.902Z,3.33
2023-05-21T08:48:18.129Z,2.40
2023-05-21T08:50:46.756Z,2.70
2023-05-21T08:53:28.808Z,2.95
2023-05-21T08:55:58.906Z,1.90
2023-05-21T08:58:50.466Z,2.58
2023-05-21T09:01:24.748Z,2.83
2023-05-21T09:04:19.828Z,2.88
2023-05-21T09:06:52.656Z,2.85
2023-05-21T09:09:34.460Z,2.28
2023-05-21T09:12:03.621Z,2.70
2023-05-21T09:14:32.461Z,3.03
2023-05-21T09:17:22.263Z,2.75
2023-05-21T09:20:11.078Z,2.50
2023-05-21T09:22:43.857Z,2.42
2023-05-21T09:25:16.525Z,2.42
2023-05-21T09:27:45.786Z,2.40
2023-05-21T09:30:16.023Z,2.20
2023-05-21T09:32:45.779Z,2.60
2023-05-21T09:35:16.747Z,2.03
2023-05-21T09:37:46.154Z,2.70
2023-05-21T09:40:15.703Z,2.40
2023-05-21T09:42:48.192Z,1.90
2023-05-21T09:45:19.991Z,2.00
2023-05-21T09:47:50.558Z,2.13
2023-05-21T09:50:24.810Z,2.08
2023-05-21T09:52:54.014Z,2.40
2023-05-21T09:55:24.512Z,1.90
2023-05-21T09:57:55.396Z,2.50
2023-05-21T10:00:27.553Z,2.15
2023-05-21T10:02:57.123Z,2.15
2023-05-21T10:05:28.725Z,2.42
2023-05-21T10:08:02.145Z,2.38
2023-05-21T10:10:32.712Z,2.77
2023-05-21T10:13:02.814Z,2.40
2023-05-21T10:15:33.516Z,2.47
2023-05-21T10:18:03.201Z,2.38
2023-05-21T10:20:33.684Z,2.30
2023-05-21T10:23:06.564Z,2.75
2023-05-21T10:25:37.381Z,2.55
2023-05-21T10:28:07.000Z,2.90
2023-05-21T10:30:36.279Z,3.40
2023-05-21T10:33:06.011Z,3.50
2023-05-21T10:35:36.362Z,3.40
2023-05-21T10:38:06.044Z,2.97
2023-05-21T10:40:36.288Z,2.78
2023-05-21T10:43:32.950Z,2.65
2023-05-21T10:46:18.310Z,2.22
2023-05-21T10:48:58.808Z,2.15
2023-05-21T10:51:30.701Z,2.38
2023-05-21T10:54:15.712Z,11.85
2023-05-21T10:56:48.381Z,2.25
2023-05-21T10:59:22.411Z,2.60
2023-05-21T11:01:53.084Z,3.20
2023-05-21T11:04:24.894Z,2.60
2023-05-21T11:06:55.253Z,2.70
2023-05-21T11:09:24.113Z,2.88
2023-05-21T11:11:55.124Z,2.75
2023-05-21T11:14:36.416Z,2.85
2023-05-21T11:17:06.031Z,3.20
2023-05-21T11:19:37.550Z,3.13
2023-05-21T11:22:23.983Z,3.00
2023-05-21T11:24:53.774Z,2.80
2023-05-21T11:27:34.629Z,3.00
2023-05-21T11:30:07.024Z,2.90
2023-05-21T11:32:38.992Z,2.70
2023-05-21T11:35:09.107Z,2.90
2023-05-21T11:37:41.858Z,2.60
2023-05-21T11:40:26.361Z,2.40
2023-05-21T11:45:24.844Z,2.65
2023-05-21T11:47:53.993Z,2.28
2023-05-21T11:50:22.493Z,2.60
2023-05-21T11:52:53.650Z,2.88
2023-05-21T11:55:26.251Z,2.33
2023-05-21T11:57:58.425Z,2.60
2023-05-21T12:00:27.659Z,2.88
2023-05-21T12:02:59.598Z,3.35
2023-05-21T12:05:28.716Z,3.17
2023-05-21T12:08:02.589Z,2.75
2023-05-21T12:10:31.242Z,2.75
2023-05-21T12:12:59.776Z,2.42
2023-05-21T12:15:28.573Z,2.70
2023-05-21T12:17:57.946Z,2.75
2023-05-21T12:20:29.041Z,2.50
2023-05-21T12:23:00.528Z,2.40
2023-05-21T12:25:32.208Z,2.17
2023-05-21T12:28:02.864Z,2.30
2023-05-21T12:30:31.690Z,2.60
2023-05-21T12:33:02.323Z,2.38
2023-05-21T12:35:34.970Z,2.00
2023-05-21T12:38:04.316Z,2.30
2023-05-21T12:40:41.115Z,2.65
2023-05-21T12:43:09.900Z,2.30
2023-05-21T12:45:40.731Z,2.15
2023-05-21T12:48:09.727Z,2.50
2023-05-21T12:50:41.814Z,2.60
2023-05-21T12:53:11.545Z,2.40
2023-05-21T12:55:41.681Z,2.97
2023-05-21T12:58:12.075Z,2.58
2023-05-21T13:00:43.266Z,3.40
2023-05-21T13:03:12.120Z,2.90
2023-05-21T13:05:41.738Z,2.70
2023-05-21T13:08:10.851Z,2.47
2023-05-21T13:10:39.832Z,2.40
2023-05-21T13:13:10.241Z,2.17
2023-05-21T13:15:38.825Z,2.03
2023-05-21T13:18:07.364Z,2.33
2023-05-21T13:20:36.136Z,2.10
2023-05-21T13:23:06.652Z,1.90
2023-05-21T13:25:36.750Z,1.70
2023-05-21T13:28:06.943Z,1.77
2023-05-21T13:30:37.678Z,2.63
2023-05-21T13:33:07.767Z,1.95
2023-05-21T13:35:36.569Z,1.60
2023-05-21T13:38:07.647Z,1.95
2023-05-21T13:40:38.738Z,2.10
2023-05-21T13:43:07.586Z,2.00
2023-05-21T13:45:37.603Z,1.85
2023-05-21T13:48:07.002Z,1.75
2023-05-21T13:50:38.857Z,2.05
2023-05-21T13:53:07.598Z,2.30
2023-05-21T13:55:38.949Z,2.22
2023-05-21T13:58:07.646Z,1.98
2023-05-21T14:00:37.840Z,2.10
2023-05-21T14:03:09.997Z,2.33
2023-05-21T14:05:38.665Z,2.30
2023-05-21T14:08:08.286Z,1.90
2023-05-21T14:10:37.055Z,2.08
2023-05-21T14:13:18.226Z,1.77
2023-05-21T14:15:52.725Z,1.77
2023-05-21T14:18:21.372Z,1.77
2023-05-21T14:20:50.045Z,1.90
2023-05-21T14:23:18.839Z,2.30
2023-05-21T14:25:47.483Z,2.05
2023-05-21T14:28:16.460Z,2.40
2023-05-21T14:30:45.870Z,2.47
2023-05-21T14:33:16.364Z,2.90
2023-05-21T14:35:48.045Z,2.20
2023-05-21T14:38:21.842Z,2.58
2023-05-21T14:40:55.779Z,2.17
2023-05-21T14:43:27.053Z,2.20
2023-05-21T14:46:04.286Z,2.67
2023-05-21T14:48:39.079Z,2.20
2023-05-21T14:51:11.498Z,2.35
2023-05-21T14:53:40.123Z,2.55
2023-05-21T14:56:08.777Z,2.40
2023-05-21T14:58:37.663Z,2.50
2023-05-21T15:01:06.605Z,2.70
2023-05-21T15:03:36.751Z,2.40
2023-05-21T15:06:05.560Z,2.50
2023-05-21T15:08:34.137Z,2.65
2023-05-21T15:11:03.060Z,7.10
2023-05-21T15:13:31.745Z,3.72
2023-05-21T15:16:00.253Z,3.08
2023-05-21T15:18:29.790Z,3.08
2023-05-21T15:20:59.862Z,2.40
2023-05-21T15:23:28.693Z,2.63
2023-05-21T15:25:57.420Z,3.05
2023-05-21T15:28:28.643Z,2.40
2023-05-21T15:31:00.195Z,2.83
2023-05-21T15:33:28.682Z,2.92
2023-05-21T15:35:57.531Z,2.72
2023-05-21T15:38:27.769Z,2.70
2023-05-21T15:40:56.882Z,2.70
2023-05-21T15:43:25.307Z,2.10
2023-05-21T15:45:53.856Z,2.30
2023-05-21T15:48:23.201Z,2.38
2023-05-21T15:50:52.079Z,2.47
2023-05-21T15:53:20.702Z,1.75
2023-05-21T15:55:50.740Z,2.22
2023-05-21T15:58:19.239Z,1.90
2023-05-21T16:00:48.149Z,2.13
2023-05-21T16:03:16.980Z,2.45
2023-05-21T16:05:45.691Z,2.15
2023-05-21T16:08:14.283Z,2.00
2023-05-21T16:10:42.960Z,1.80
2023-05-21T16:13:14.549Z,2.00
2023-05-21T16:15:43.162Z,1.77
2023-05-21T16:18:11.765Z,1.80
2023-05-21T16:20:41.074Z,2.08
2023-05-21T16:23:09.525Z,2.55
2023-05-21T16:25:38.346Z,1.88
2023-05-21T16:28:07.191Z,1.65
2023-05-21T16:30:37.160Z,2.00
2023-05-21T16:33:06.057Z,2.28
2023-05-21T16:35:34.933Z,2.53
2023-05-21T16:38:03.724Z,2.50
2023-05-21T16:40:32.652Z,3.78
2023-05-21T16:43:02.143Z,2.60
2023-05-21T16:45:39.903Z,2.25
2023-05-21T16:48:09.208Z,2.17
2023-05-21T16:50:38.070Z,2.33
2023-05-21T16:53:07.836Z,1.98
2023-05-21T16:55:38.004Z,2.28
2023-05-21T16:58:09.366Z,2.28
2023-05-21T17:00:42.899Z,1.75
2023-05-21T17:03:12.035Z,2.42
2023-05-21T17:05:40.597Z,2.42
2023-05-21T17:08:09.569Z,2.80
2023-05-21T17:10:38.035Z,2.22
2023-05-21T17:13:20.758Z,2.33
2023-05-21T17:15:52.693Z,2.70
2023-05-21T17:18:21.284Z,2.63
2023-05-21T17:20:50.210Z,2.35
2023-05-21T17:23:19.136Z,2.08
2023-05-21T17:25:47.815Z,1.98
2023-05-21T17:28:16.382Z,2.72
2023-05-21T17:30:46.021Z,2.70
2023-05-21T17:33:16.776Z,2.33
2023-05-21T17:35:45.739Z,2.35
2023-05-21T17:38:15.991Z,2.40
2023-05-21T17:40:44.675Z,2.40
2023-05-21T17:43:13.230Z,2.50
2023-05-21T17:45:44.596Z,2.30
2023-05-21T17:48:13.618Z,2.50
2023-05-21T17:50:43.476Z,2.60
2023-05-21T17:53:14.838Z,2.53
2023-05-21T17:55:43.302Z,2.25
2023-05-21T17:58:11.704Z,2.30
2023-05-21T18:00:40.797Z,2.53
2023-05-21T18:03:11.639Z,2.42
2023-05-21T18:05:40.337Z,2.60
2023-05-21T18:08:10.403Z,2.35
2023-05-21T18:10:38.953Z,2.72
2023-05-21T18:13:07.592Z,2.38
2023-05-21T18:15:36.552Z,2.58
2023-05-21T18:18:05.359Z,2.90
2023-05-21T18:20:34.558Z,2.67
2023-05-21T18:23:03.355Z,2.50
2023-05-21T18:25:33.536Z,3.20
2023-05-21T18:28:02.009Z,3.15
2023-05-21T18:30:30.637Z,2.92
2023-05-21T18:32:59.142Z,3.13
2023-05-21T18:35:28.268Z,2.60
2023-05-21T18:37:57.191Z,2.75
2023-05-21T18:40:30.479Z,2.65
2023-05-21T18:43:00.924Z,2.73
2023-05-21T18:45:30.148Z,3.03
2023-05-21T18:47:59.105Z,2.95
2023-05-21T18:50:27.673Z,2.92
2023-05-21T18:52:56.302Z,3.88
2023-05-21T18:55:24.812Z,3.47
2023-05-21T18:57:53.473Z,3.17
2023-05-21T19:00:23.778Z,3.17
2023-05-21T19:02:52.914Z,3.33
2023-05-21T19:05:21.774Z,2.97
2023-05-21T19:07:50.549Z,3.33
2023-05-21T19:10:19.811Z,3.17
2023-05-21T19:12:49.332Z,3.80
2023-05-21T19:15:20.026Z,3.90
2023-05-21T19:17:50.029Z,3.70
2023-05-21T19:20:25.053Z,3.35
2023-05-21T19:22:54.138Z,3.40
2023-05-21T19:25:22.840Z,4.15
2023-05-21T19:27:52.932Z,3.97
2023-05-21T19:30:21.591Z,5.78
2023-05-21T19:32:51.488Z,8.82
2023-05-21T19:35:21.314Z,12.05
2023-05-21T19:37:50.096Z,12.75
2023-05-21T19:40:21.317Z,13.90
2023-05-21T19:42:50.185Z,14.07
2023-05-21T19:45:18.568Z,12.45
2023-05-21T19:47:47.362Z,10.23
2023-05-21T19:50:18.168Z,12.02
2023-05-21T19:52:46.787Z,8.32
2023-05-21T19:55:20.510Z,7.20
2023-05-21T19:57:50.326Z,7.65
2023-05-21T20:00:19.391Z,9.77
2023-05-21T20:02:49.672Z,8.32
2023-05-21T20:05:20.147Z,8.50
2023-05-21T20:07:48.775Z,7.93
2023-05-21T20:10:17.440Z,7.65
2023-05-21T20:12:46.164Z,7.38
2023-05-21T20:15:14.661Z,8.10
2023-05-21T20:17:44.251Z,7.75
2023-05-21T20:20:34.781Z,7.18
2023-05-21T20:23:06.985Z,8.15
2023-05-21T20:25:35.752Z,6.65
2023-05-21T20:28:07.103Z,8.27
2023-05-21T20:30:37.108Z,7.63
2023-05-21T20:33:08.494Z,6.72
2023-05-21T20:35:37.628Z,5.80
2023-05-21T20:38:07.824Z,8.00
2023-05-21T20:40:36.515Z,9.48
2023-05-21T20:43:05.534Z,7.85
2023-05-21T20:45:36.335Z,7.13
2023-05-21T20:48:05.851Z,6.10
2023-05-21T20:50:37.687Z,6.30
2023-05-21T20:53:07.966Z,5.90
2023-05-21T20:55:36.546Z,6.45
2023-05-21T20:58:06.010Z,7.93
2023-05-21T21:00:35.108Z,7.75
2023-05-21T21:03:04.132Z,9.30
2023-05-21T21:05:32.825Z,9.77
2023-05-21T21:08:02.638Z,10.15
2023-05-21T21:10:33.965Z,9.90
2023-05-21T21:13:03.539Z,10.65
2023-05-21T21:15:32.000Z,10.57
2023-05-21T21:18:04.192Z,9.85
2023-05-21T21:20:32.949Z,9.70
2023-05-21T21:23:01.582Z,8.38
2023-05-21T21:25:33.736Z,7.47
2023-05-21T21:28:03.716Z,7.22
2023-05-21T21:30:32.148Z,7.57
2023-05-21T21:33:01.218Z,7.15
2023-05-21T21:35:30.316Z,8.18
2023-05-21T21:37:59.100Z,7.55
2023-05-21T21:40:28.240Z,6.65
2023-05-21T21:42:56.761Z,6.97
2023-05-21T21:45:26.713Z,7.20
2023-05-21T21:47:55.550Z,6.57
2023-05-21T21:50:24.155Z,6.93
2023-05-21T21:52:55.957Z,6.07
2023-05-21T21:55:24.771Z,7.05
2023-05-21T21:57:53.384Z,7.15
2023-05-21T22:00:26.742Z,6.93
2023-05-21T22:02:56.934Z,6.82
2023-05-21T22:05:25.474Z,6.30
2023-05-21T22:07:56.752Z,7.35
2023-05-21T22:10:25.980Z,6.70
2023-05-21T22:12:54.556Z,6.03
2023-05-21T22:15:25.173Z,6.28
2023-05-21T22:17:53.967Z,5.97
2023-05-21T22:20:26.129Z,6.25
2023-05-21T22:22:55.512Z,6.38
2023-05-21T22:25:24.128Z,6.18
2023-05-21T22:27:54.903Z,6.20
2023-05-21T22:30:23.369Z,6.80
2023-05-21T22:32:51.989Z,6.57
2023-05-21T22:35:20.857Z,6.72
2023-05-21T22:37:51.192Z,6.63
2023-05-21T22:40:19.950Z,6.57
2023-05-21T22:42:49.485Z,5.75
2023-05-21T22:45:19.073Z,6.15
2023-05-21T22:47:48.280Z,6.45
2023-05-21T22:50:17.015Z,5.57
2023-05-21T22:52:45.708Z,6.00
2023-05-21T22:55:18.726Z,5.68
2023-05-21T22:57:48.942Z,5.95
2023-05-21T23:00:19.290Z,5.90
2023-05-21T23:02:48.246Z,5.30
2023-05-21T23:05:17.263Z,6.00
2023-05-21T23:07:45.749Z,6.93
2023-05-21T23:10:14.628Z,6.05
2023-05-21T23:12:44.620Z,6.63
2023-05-21T23:15:13.554Z,6.80
2023-05-21T23:17:44.171Z,6.53
2023-05-21T23:20:13.276Z,6.75
2023-05-21T23:22:41.819Z,6.47
2023-05-21T23:25:11.270Z,5.53
2023-05-21T23:27:39.656Z,5.82
2023-05-21T23:30:11.740Z,6.00
2023-05-21T23:32:40.675Z,5.65
2023-05-21T23:35:14.501Z,6.28
2023-05-21T23:37:43.225Z,7.65
2023-05-21T23:40:13.027Z,7.65
2023-05-21T23:42:41.578Z,6.90
2023-05-21T23:45:12.688Z,6.38
2023-05-21T23:47:42.350Z,6.47
2023-05-21T23:50:11.278Z,7.40
2023-05-21T23:52:41.641Z,7.20
2023-05-21T23:55:12.775Z,6.90
2023-05-21T23:57:41.466Z,7.18
